sensor_id;sensor_type;location;lat;lon;timestamp;pressure;altitude;pressure_sealevel;temperature;humidity
58622;BME280;44389;51.578;5.456;2023-08-21T00:00:49;102136.41;;;17.12;100.00
58622;BME280;44389;51.578;5.456;2023-08-21T00:03:14;102130.38;;;17.15;100.00
58622;BME280;44389;51.578;5.456;2023-08-21T00:05:40;102131.84;;;17.03;100.00
58622;BME280;44389;51.578;5.456;2023-08-21T00:08:05;102127.44;;;17.01;100.00
58622;BME280;44389;51.578;5.456;2023-08-21T00:10:30;102126.78;;;17.09;100.00
58622;BME280;44389;51.578;5.456;2023-08-21T00:12:56;102127.63;;;17.08;100.00
58622;BME280;44389;51.578;5.456;2023-08-21T00:15:22;102133.63;;;17.04;100.00
58622;BME280;44389;51.578;5.456;2023-08-21T00:17:47;102127.84;;;17.18;100.00
58622;BME280;44389;51.578;5.456;2023-08-21T00:20:13;102120.88;;;17.18;100.00
58622;BME280;44389;51.578;5.456;2023-08-21T00:22:38;102130.72;;;17.30;100.00
58622;BME280;44389;51.578;5.456;2023-08-21T00:25:03;102131.91;;;17.44;100.00
58622;BME280;44389;51.578;5.456;2023-08-21T00:27:29;102130.31;;;17.51;100.00
58622;BME280;44389;51.578;5.456;2023-08-21T00:29:55;102118.75;;;17.38;100.00
58622;BME280;44389;51.578;5.456;2023-08-21T00:32:20;102121.94;;;17.25;100.00
58622;BME280;44389;51.578;5.456;2023-08-21T00:34:45;102112.84;;;17.07;100.00
58622;BME280;44389;51.578;5.456;2023-08-21T00:37:11;102118.69;;;16.97;100.00
58622;BME280;44389;51.578;5.456;2023-08-21T00:39:36;102118.56;;;16.92;100.00
58622;BME280;44389;51.578;5.456;2023-08-21T00:42:02;102115.94;;;16.91;100.00
58622;BME280;44389;51.578;5.456;2023-08-21T00:44:27;102112.47;;;16.92;100.00
58622;BME280;44389;51.578;5.456;2023-08-21T00:46:53;102115.84;;;16.88;100.00
58622;BME280;44389;51.578;5.456;2023-08-21T00:49:19;102112.94;;;16.77;100.00
58622;BME280;44389;51.578;5.456;2023-08-21T00:51:45;102115.38;;;16.69;100.00
58622;BME280;44389;51.578;5.456;2023-08-21T00:54:10;102115.97;;;16.59;100.00
58622;BME280;44389;51.578;5.456;2023-08-21T00:56:36;102118.59;;;16.59;100.00
58622;BME280;44389;51.578;5.456;2023-08-21T00:59:01;102115.13;;;16.58;100.00
58622;BME280;44389;51.578;5.456;2023-08-21T01:01:28;102125.56;;;16.60;100.00
58622;BME280;44389;51.578;5.456;2023-08-21T01:03:53;102124.75;;;16.62;100.00
58622;BME280;44389;51.578;5.456;2023-08-21T01:06:19;102129.38;;;16.74;100.00
58622;BME280;44389;51.578;5.456;2023-08-21T01:11:21;102123.50;;;16.82;100.00
58622;BME280;44389;51.578;5.456;2023-08-21T01:16:21;102118.28;;;16.82;100.00
58622;BME280;44389;51.578;5.456;2023-08-21T01:18:47;102122.72;;;16.86;100.00
58622;BME280;44389;51.578;5.456;2023-08-21T01:21:15;102118.53;;;16.91;100.00
58622;BME280;44389;51.578;5.456;2023-08-21T01:23:41;102118.53;;;16.91;100.00
58622;BME280;44389;51.578;5.456;2023-08-21T01:26:09;102108.84;;;16.87;100.00
58622;BME280;44389;51.578;5.456;2023-08-21T01:28:35;102106.72;;;16.70;100.00
58622;BME280;44389;51.578;5.456;2023-08-21T01:31:21;102108.28;;;16.63;100.00
58622;BME280;44389;51.578;5.456;2023-08-21T01:33:51;102097.25;;;16.37;100.00
58622;BME280;44389;51.578;5.456;2023-08-21T01:36:17;102094.16;;;16.19;100.00
58622;BME280;44389;51.578;5.456;2023-08-21T01:38:43;102096.50;;;16.09;100.00
58622;BME280;44389;51.578;5.456;2023-08-21T01:41:09;102097.94;;;15.98;100.00
58622;BME280;44389;51.578;5.456;2023-08-21T01:43:34;102101.28;;;15.94;100.00
58622;BME280;44389;51.578;5.456;2023-08-21T01:46:01;102102.81;;;15.86;100.00
58622;BME280;44389;51.578;5.456;2023-08-21T01:48:27;102104.38;;;15.80;100.00
58622;BME280;44389;51.578;5.456;2023-08-21T01:50:52;102102.53;;;15.76;100.00
58622;BME280;44389;51.578;5.456;2023-08-21T01:53:17;102101.63;;;15.76;100.00
58622;BME280;44389;51.578;5.456;2023-08-21T01:55:43;102101.34;;;15.65;100.00
58622;BME280;44389;51.578;5.456;2023-08-21T01:58:08;102099.72;;;15.69;100.00
58622;BME280;44389;51.578;5.456;2023-08-21T02:00:33;102104.03;;;15.70;100.00
58622;BME280;44389;51.578;5.456;2023-08-21T02:02:59;102104.81;;;15.66;100.00
58622;BME280;44389;51.578;5.456;2023-08-21T02:05:24;102110.81;;;15.64;100.00
58622;BME280;44389;51.578;5.456;2023-08-21T02:07:49;102117.72;;;15.62;100.00
58622;BME280;44389;51.578;5.456;2023-08-21T02:10:15;102123.59;;;15.57;100.00
58622;BME280;44389;51.578;5.456;2023-08-21T02:12:40;102118.47;;;15.58;100.00
58622;BME280;44389;51.578;5.456;2023-08-21T02:15:06;102117.56;;;15.58;100.00
58622;BME280;44389;51.578;5.456;2023-08-21T02:17:31;102121.78;;;15.54;100.00
58622;BME280;44389;51.578;5.456;2023-08-21T02:19:57;102116.47;;;15.50;100.00
58622;BME280;44389;51.578;5.456;2023-08-21T02:22:22;102122.22;;;15.39;100.00
58622;BME280;44389;51.578;5.456;2023-08-21T02:24:48;102126.41;;;15.34;100.00
58622;BME280;44389;51.578;5.456;2023-08-21T02:27:13;102119.44;;;15.33;100.00
58622;BME280;44389;51.578;5.456;2023-08-21T02:29:38;102123.75;;;15.33;100.00
58622;BME280;44389;51.578;5.456;2023-08-21T02:32:04;102116.75;;;15.30;100.00
58622;BME280;44389;51.578;5.456;2023-08-21T02:34:29;102126.13;;;15.25;100.00
58622;BME280;44389;51.578;5.456;2023-08-21T02:36:54;102119.91;;;15.20;100.00
58622;BME280;44389;51.578;5.456;2023-08-21T02:39:20;102118.16;;;15.19;100.00
58622;BME280;44389;51.578;5.456;2023-08-21T02:41:45;102122.44;;;15.18;100.00
58622;BME280;44389;51.578;5.456;2023-08-21T02:44:10;102121.09;;;15.02;100.00
58622;BME280;44389;51.578;5.456;2023-08-21T02:46:36;102118.31;;;14.97;100.00
58622;BME280;44389;51.578;5.456;2023-08-21T02:49:02;102120.59;;;14.87;100.00
58622;BME280;44389;51.578;5.456;2023-08-21T02:51:27;102124.81;;;14.83;100.00
58622;BME280;44389;51.578;5.456;2023-08-21T02:53:53;102122.16;;;14.81;100.00
58622;BME280;44389;51.578;5.456;2023-08-21T02:56:18;102121.03;;;14.73;100.00
58622;BME280;44389;51.578;5.456;2023-08-21T02:58:44;102118.31;;;14.70;100.00
58622;BME280;44389;51.578;5.456;2023-08-21T03:01:09;102113.34;;;14.76;100.00
58622;BME280;44389;51.578;5.456;2023-08-21T03:03:34;102114.56;;;14.62;100.00
58622;BME280;44389;51.578;5.456;2023-08-21T03:06:01;102113.53;;;14.57;100.00
58622;BME280;44389;51.578;5.456;2023-08-21T03:08:26;102104.72;;;14.52;100.00
58622;BME280;44389;51.578;5.456;2023-08-21T03:10:51;102109.22;;;14.57;100.00
58622;BME280;44389;51.578;5.456;2023-08-21T03:13:16;102111.97;;;14.62;100.00
58622;BME280;44389;51.578;5.456;2023-08-21T03:15:42;102111.03;;;14.60;100.00
58622;BME280;44389;51.578;5.456;2023-08-21T03:18:07;102113.38;;;14.52;100.00
58622;BME280;44389;51.578;5.456;2023-08-21T03:20:32;102116.19;;;14.58;100.00
58622;BME280;44389;51.578;5.456;2023-08-21T03:22:58;102110.94;;;14.57;100.00
58622;BME280;44389;51.578;5.456;2023-08-21T03:25:23;102126.38;;;14.54;100.00
58622;BME280;44389;51.578;5.456;2023-08-21T03:27:48;102122.75;;;14.48;100.00
58622;BME280;44389;51.578;5.456;2023-08-21T03:30:14;102126.50;;;14.57;100.00
58622;BME280;44389;51.578;5.456;2023-08-21T03:32:40;102124.94;;;14.62;100.00
58622;BME280;44389;51.578;5.456;2023-08-21T03:35:06;102126.38;;;14.54;100.00
58622;BME280;44389;51.578;5.456;2023-08-21T03:37:31;102116.34;;;14.63;100.00
58622;BME280;44389;51.578;5.456;2023-08-21T03:39:57;102118.13;;;14.64;100.00
58622;BME280;44389;51.578;5.456;2023-08-21T03:42:22;102121.41;;;14.60;100.00
58622;BME280;44389;51.578;5.456;2023-08-21T03:44:47;102127.72;;;14.67;100.00
58622;BME280;44389;51.578;5.456;2023-08-21T03:47:18;102120.09;;;14.71;100.00
58622;BME280;44389;51.578;5.456;2023-08-21T03:49:43;102114.81;;;14.68;100.00
58622;BME280;44389;51.578;5.456;2023-08-21T03:52:08;102110.44;;;14.67;100.00
58622;BME280;44389;51.578;5.456;2023-08-21T03:54:34;102110.53;;;14.70;100.00
58622;BME280;44389;51.578;5.456;2023-08-21T03:56:59;102112.47;;;14.76;100.00
58622;BME280;44389;51.578;5.456;2023-08-21T03:59:24;102114.16;;;14.75;100.00
58622;BME280;44389;51.578;5.456;2023-08-21T04:01:53;102115.19;;;14.80;100.00
58622;BME280;44389;51.578;5.456;2023-08-21T04:04:18;102117.78;;;14.80;100.00
58622;BME280;44389;51.578;5.456;2023-08-21T04:06:43;102110.47;;;14.94;100.00
58622;BME280;44389;51.578;5.456;2023-08-21T04:09:09;102113.75;;;14.89;100.00
58622;BME280;44389;51.578;5.456;2023-08-21T04:11:35;102112.28;;;14.97;100.00
58622;BME280;44389;51.578;5.456;2023-08-21T04:14:01;102112.84;;;14.88;100.00
58622;BME280;44389;51.578;5.456;2023-08-21T04:16:27;102117.53;;;15.00;100.00
58622;BME280;44389;51.578;5.456;2023-08-21T04:18:53;102123.16;;;14.85;100.00
58622;BME280;44389;51.578;5.456;2023-08-21T04:21:18;102122.78;;;14.74;100.00
58622;BME280;44389;51.578;5.456;2023-08-21T04:23:44;102113.91;;;14.68;100.00
58622;BME280;44389;51.578;5.456;2023-08-21T04:26:11;102124.94;;;14.62;100.00
58622;BME280;44389;51.578;5.456;2023-08-21T04:28:37;102123.00;;;14.56;100.00
58622;BME280;44389;51.578;5.456;2023-08-21T04:31:06;102134.81;;;14.46;100.00
58622;BME280;44389;51.578;5.456;2023-08-21T04:33:32;102129.31;;;14.63;100.00
58622;BME280;44389;51.578;5.456;2023-08-21T04:35:57;102128.75;;;14.72;100.00
58622;BME280;44389;51.578;5.456;2023-08-21T04:38:23;102134.16;;;14.78;100.00
58622;BME280;44389;51.578;5.456;2023-08-21T04:40:48;102136.47;;;14.96;100.00
58622;BME280;44389;51.578;5.456;2023-08-21T04:43:14;102135.91;;;15.06;100.00
58622;BME280;44389;51.578;5.456;2023-08-21T04:45:48;102140.78;;;15.23;100.00
58622;BME280;44389;51.578;5.456;2023-08-21T04:48:14;102135.84;;;15.32;100.00
58622;BME280;44389;51.578;5.456;2023-08-21T04:50:39;102131.03;;;15.44;100.00
58622;BME280;44389;51.578;5.456;2023-08-21T04:53:05;102137.16;;;15.46;100.00
58622;BME280;44389;51.578;5.456;2023-08-21T04:55:30;102140.75;;;15.52;100.00
58622;BME280;44389;51.578;5.456;2023-08-21T04:57:56;102144.22;;;15.51;100.00
58622;BME280;44389;51.578;5.456;2023-08-21T05:00:21;102143.91;;;15.41;100.00
58622;BME280;44389;51.578;5.456;2023-08-21T05:02:46;102149.13;;;15.41;100.00
58622;BME280;44389;51.578;5.456;2023-08-21T05:05:12;102153.44;;;15.41;100.00
58622;BME280;44389;51.578;5.456;2023-08-21T05:07:37;102160.72;;;15.53;100.00
58622;BME280;44389;51.578;5.456;2023-08-21T05:10:02;102161.00;;;15.62;100.00
58622;BME280;44389;51.578;5.456;2023-08-21T05:12:28;102157.00;;;15.73;100.00
58622;BME280;44389;51.578;5.456;2023-08-21T05:14:53;102155.16;;;15.69;100.00
58622;BME280;44389;51.578;5.456;2023-08-21T05:17:19;102154.41;;;15.73;100.00
58622;BME280;44389;51.578;5.456;2023-08-21T05:19:44;102153.56;;;15.74;100.00
58622;BME280;44389;51.578;5.456;2023-08-21T05:22:09;102157.03;;;15.75;100.00
58622;BME280;44389;51.578;5.456;2023-08-21T05:24:35;102158.72;;;15.73;100.00
58622;BME280;44389;51.578;5.456;2023-08-21T05:27:00;102161.22;;;15.70;100.00
58622;BME280;44389;51.578;5.456;2023-08-21T05:29:26;102165.47;;;15.66;100.00
58622;BME280;44389;51.578;5.456;2023-08-21T05:31:51;102165.47;;;15.66;100.00
58622;BME280;44389;51.578;5.456;2023-08-21T05:34:16;102162.94;;;15.69;100.00
58622;BME280;44389;51.578;5.456;2023-08-21T05:36:42;102170.00;;;15.73;100.00
58622;BME280;44389;51.578;5.456;2023-08-21T05:39:07;102173.53;;;15.75;100.00
58622;BME280;44389;51.578;5.456;2023-08-21T05:41:33;102175.59;;;15.86;100.00
58622;BME280;44389;51.578;5.456;2023-08-21T05:43:58;102177.44;;;15.90;100.00
58622;BME280;44389;51.578;5.456;2023-08-21T05:46:23;102184.31;;;15.88;100.00
58622;BME280;44389;51.578;5.456;2023-08-21T05:48:49;102180.88;;;15.89;100.00
58622;BME280;44389;51.578;5.456;2023-08-21T05:51:14;102180.81;;;15.86;100.00
58622;BME280;44389;51.578;5.456;2023-08-21T05:53:39;102183.41;;;15.86;100.00
58622;BME280;44389;51.578;5.456;2023-08-21T05:56:05;102184.22;;;15.85;100.00
58622;BME280;44389;51.578;5.456;2023-08-21T05:58:30;102190.41;;;15.88;100.00
58622;BME280;44389;51.578;5.456;2023-08-21T06:00:57;102183.47;;;15.89;100.00
58622;BME280;44389;51.578;5.456;2023-08-21T06:03:23;102179.94;;;15.87;100.00
58622;BME280;44389;51.578;5.456;2023-08-21T06:05:48;102180.88;;;15.89;100.00
58622;BME280;44389;51.578;5.456;2023-08-21T06:08:14;102180.16;;;15.94;100.00
58622;BME280;44389;51.578;5.456;2023-08-21T06:10:39;102181.13;;;15.98;100.00
58622;BME280;44389;51.578;5.456;2023-08-21T06:13:04;102186.59;;;16.07;100.00
58622;BME280;44389;51.578;5.456;2023-08-21T06:15:30;102191.22;;;16.18;100.00
58622;BME280;44389;51.578;5.456;2023-08-21T06:17:55;102184.56;;;16.27;100.00
58622;BME280;44389;51.578;5.456;2023-08-21T06:20:23;102181.31;;;16.35;100.00
58622;BME280;44389;51.578;5.456;2023-08-21T06:22:49;102185.94;;;16.46;100.00
58622;BME280;44389;51.578;5.456;2023-08-21T06:25:14;102191.47;;;16.59;100.00
58622;BME280;44389;51.578;5.456;2023-08-21T06:27:39;102194.41;;;16.71;100.00
58622;BME280;44389;51.578;5.456;2023-08-21T06:30:05;102189.41;;;16.81;100.00
58622;BME280;44389;51.578;5.456;2023-08-21T06:32:31;102188.00;;;16.92;100.00
58622;BME280;44389;51.578;5.456;2023-08-21T06:34:56;102190.81;;;17.01;100.00
58622;BME280;44389;51.578;5.456;2023-08-21T06:37:21;102195.41;;;17.11;100.00
58622;BME280;44389;51.578;5.456;2023-08-21T06:39:47;102193.03;;;17.21;100.00
58622;BME280;44389;51.578;5.456;2023-08-21T06:42:12;102196.78;;;17.32;100.00
58622;BME280;44389;51.578;5.456;2023-08-21T06:44:37;102198.84;;;17.46;100.00
58622;BME280;44389;51.578;5.456;2023-08-21T06:47:03;102200.81;;;17.56;100.00
58622;BME280;44389;51.578;5.456;2023-08-21T06:49:28;102197.47;;;17.63;100.00
58622;BME280;44389;51.578;5.456;2023-08-21T06:51:54;102201.16;;;17.73;100.00
58622;BME280;44389;51.578;5.456;2023-08-21T06:54:19;102200.56;;;17.86;100.00
58622;BME280;44389;51.578;5.456;2023-08-21T06:56:44;102205.28;;;18.01;100.00
58622;BME280;44389;51.578;5.456;2023-08-21T06:59:10;102209.00;;;18.14;100.00
58622;BME280;44389;51.578;5.456;2023-08-21T07:01:35;102204.81;;;18.22;100.00
58622;BME280;44389;51.578;5.456;2023-08-21T07:04:00;102204.22;;;18.37;100.00
58622;BME280;44389;51.578;5.456;2023-08-21T07:06:30;102213.13;;;18.49;100.00
58622;BME280;44389;51.578;5.456;2023-08-21T07:08:55;102210.84;;;18.66;100.00
58622;BME280;44389;51.578;5.456;2023-08-21T07:11:21;102211.88;;;18.75;100.00
58622;BME280;44389;51.578;5.456;2023-08-21T07:13:46;102213.94;;;18.94;100.00
58622;BME280;44389;51.578;5.456;2023-08-21T07:16:11;102215.97;;;19.10;100.00
58622;BME280;44389;51.578;5.456;2023-08-21T07:18:38;102213.47;;;19.18;100.00
58622;BME280;44389;51.578;5.456;2023-08-21T07:21:04;102219.84;;;19.35;100.00
58622;BME280;44389;51.578;5.456;2023-08-21T07:23:30;102214.03;;;19.55;100.00
58622;BME280;44389;51.578;5.456;2023-08-21T07:25:57;102211.69;;;19.77;100.00
58622;BME280;44389;51.578;5.456;2023-08-21T07:28:22;102202.44;;;20.00;100.00
58622;BME280;44389;51.578;5.456;2023-08-21T07:30:48;102216.56;;;20.16;100.00
58622;BME280;44389;51.578;5.456;2023-08-21T07:33:13;102215.72;;;20.19;100.00
58622;BME280;44389;51.578;5.456;2023-08-21T07:35:38;102212.50;;;20.42;100.00
58622;BME280;44389;51.578;5.456;2023-08-21T07:38:04;102218.88;;;20.68;100.00
58622;BME280;44389;51.578;5.456;2023-08-21T07:40:29;102218.00;;;20.69;100.00
58622;BME280;44389;51.578;5.456;2023-08-21T07:42:54;102218.34;;;21.07;100.00
58622;BME280;44389;51.578;5.456;2023-08-21T07:45:20;102221.09;;;21.24;100.00
58622;BME280;44389;51.578;5.456;2023-08-21T07:47:45;102226.28;;;21.14;99.27
58622;BME280;44389;51.578;5.456;2023-08-21T07:50:11;102224.56;;;21.22;100.00
58622;BME280;44389;51.578;5.456;2023-08-21T07:52:36;102223.66;;;21.10;97.91
58622;BME280;44389;51.578;5.456;2023-08-21T07:55:02;102225.53;;;21.29;99.51
58622;BME280;44389;51.578;5.456;2023-08-21T07:57:28;102222.06;;;21.33;98.34
58622;BME280;44389;51.578;5.456;2023-08-21T07:59:54;102225.53;;;21.32;97.66
58622;BME280;44389;51.578;5.456;2023-08-21T08:02:19;102222.97;;;21.40;97.34
58622;BME280;44389;51.578;5.456;2023-08-21T08:04:46;102219.50;;;21.46;91.86
58622;BME280;44389;51.578;5.456;2023-08-21T08:07:11;102231.72;;;21.44;90.54
58622;BME280;44389;51.578;5.456;2023-08-21T08:09:37;102231.75;;;21.47;94.18
58622;BME280;44389;51.578;5.456;2023-08-21T08:12:02;102240.47;;;21.44;88.55
58622;BME280;44389;51.578;5.456;2023-08-21T08:14:28;102244.03;;;21.52;87.99
58622;BME280;44389;51.578;5.456;2023-08-21T08:16:53;102237.97;;;21.61;86.43
58622;BME280;44389;51.578;5.456;2023-08-21T08:19:18;102240.03;;;22.21;86.49
58622;BME280;44389;51.578;5.456;2023-08-21T08:21:43;102235.56;;;22.06;84.22
58622;BME280;44389;51.578;5.456;2023-08-21T08:24:09;102234.78;;;22.27;83.74
58622;BME280;44389;51.578;5.456;2023-08-21T08:26:34;102238.38;;;22.57;80.69
58622;BME280;44389;51.578;5.456;2023-08-21T08:29:00;102237.50;;;22.64;79.21
58622;BME280;44389;51.578;5.456;2023-08-21T08:31:25;102247.19;;;22.78;79.18
58622;BME280;44389;51.578;5.456;2023-08-21T08:33:53;102243.69;;;22.88;82.01
58622;BME280;44389;51.578;5.456;2023-08-21T08:36:18;102236.66;;;22.93;78.59
58622;BME280;44389;51.578;5.456;2023-08-21T08:38:43;102236.69;;;23.16;74.53
58622;BME280;44389;51.578;5.456;2023-08-21T08:43:45;102234.91;;;23.40;72.68
58622;BME280;44389;51.578;5.456;2023-08-21T08:46:11;102232.16;;;23.80;71.45
58622;BME280;44389;51.578;5.456;2023-08-21T08:48:37;102238.16;;;24.18;68.86
58622;BME280;44389;51.578;5.456;2023-08-21T08:51:04;102247.66;;;24.48;68.78
58622;BME280;44389;51.578;5.456;2023-08-21T08:53:32;102251.06;;;24.66;65.95
58622;BME280;44389;51.578;5.456;2023-08-21T08:55:58;102248.44;;;24.68;66.42
58622;BME280;44389;51.578;5.456;2023-08-21T08:58:24;102244.25;;;24.32;63.40
58622;BME280;44389;51.578;5.456;2023-08-21T09:00:50;102239.66;;;24.59;66.34
58622;BME280;44389;51.578;5.456;2023-08-21T09:03:15;102247.53;;;24.73;64.10
58622;BME280;44389;51.578;5.456;2023-08-21T09:05:41;102258.22;;;24.48;59.95
58622;BME280;44389;51.578;5.456;2023-08-21T09:10:32;102240.63;;;24.47;59.73
58622;BME280;44389;51.578;5.456;2023-08-21T09:12:57;102242.50;;;24.30;62.90
58622;BME280;44389;51.578;5.456;2023-08-21T09:15:29;102251.22;;;24.43;59.19
58622;BME280;44389;51.578;5.456;2023-08-21T09:17:55;102244.16;;;24.49;61.04
58622;BME280;44389;51.578;5.456;2023-08-21T09:20:20;102237.00;;;24.69;64.05
58622;BME280;44389;51.578;5.456;2023-08-21T09:23:04;102233.31;;;24.93;65.81
58622;BME280;44389;51.578;5.456;2023-08-21T09:25:43;102237.53;;;25.14;60.90
58622;BME280;44389;51.578;5.456;2023-08-21T09:28:09;102243.31;;;25.53;60.82
58622;BME280;44389;51.578;5.456;2023-08-21T09:30:47;102241.44;;;25.64;59.64
58622;BME280;44389;51.578;5.456;2023-08-21T09:33:13;102231.31;;;26.01;54.64
58622;BME280;44389;51.578;5.456;2023-08-21T09:35:38;102228.63;;;26.05;55.97
58622;BME280;44389;51.578;5.456;2023-08-21T09:38:07;102228.81;;;25.91;56.78
58622;BME280;44389;51.578;5.456;2023-08-21T09:40:32;102233.06;;;26.02;56.08
58622;BME280;44389;51.578;5.456;2023-08-21T09:42:58;102238.72;;;26.41;53.57
58622;BME280;44389;51.578;5.456;2023-08-21T09:45:25;102235.44;;;26.25;51.31
58622;BME280;44389;51.578;5.456;2023-08-21T09:47:51;102235.44;;;26.23;54.23
58622;BME280;44389;51.578;5.456;2023-08-21T09:50:21;102236.59;;;26.01;54.88
58622;BME280;44389;51.578;5.456;2023-08-21T09:52:49;102232.84;;;26.20;53.79
58622;BME280;44389;51.578;5.456;2023-08-21T09:55:16;102225.72;;;26.25;50.57
58622;BME280;44389;51.578;5.456;2023-08-21T09:57:42;102239.50;;;27.04;50.89
58622;BME280;44389;51.578;5.456;2023-08-21T10:00:08;102222.78;;;27.02;51.52
58622;BME280;44389;51.578;5.456;2023-08-21T10:02:46;102231.31;;;27.18;51.77
58622;BME280;44389;51.578;5.456;2023-08-21T10:05:16;102227.56;;;27.76;51.30
58622;BME280;44389;51.578;5.456;2023-08-21T10:07:43;102229.38;;;28.54;48.79
58622;BME280;44389;51.578;5.456;2023-08-21T10:10:09;102226.28;;;28.74;45.69
58622;BME280;44389;51.578;5.456;2023-08-21T10:12:36;102220.72;;;28.48;42.99
58622;BME280;44389;51.578;5.456;2023-08-21T10:15:01;102222.66;;;29.13;42.42
58622;BME280;44389;51.578;5.456;2023-08-21T10:17:26;102219.91;;;29.16;41.32
58622;BME280;44389;51.578;5.456;2023-08-21T10:19:52;102214.16;;;29.65;44.33
58622;BME280;44389;51.578;5.456;2023-08-21T10:22:39;102213.50;;;30.18;46.07
58622;BME280;44389;51.578;5.456;2023-08-21T10:25:17;102213.53;;;30.45;43.75
58622;BME280;44389;51.578;5.456;2023-08-21T10:27:45;102221.69;;;30.67;40.71
58622;BME280;44389;51.578;5.456;2023-08-21T10:30:15;102228.00;;;31.16;40.24
58622;BME280;44389;51.578;5.456;2023-08-21T10:32:48;102224.56;;;30.87;38.55
58622;BME280;44389;51.578;5.456;2023-08-21T10:35:15;102221.97;;;31.60;37.70
58622;BME280;44389;51.578;5.456;2023-08-21T10:40:32;102217.75;;;32.69;36.54
58622;BME280;44389;51.578;5.456;2023-08-21T10:42:58;102218.94;;;33.04;33.87
58622;BME280;44389;51.578;5.456;2023-08-21T10:45:24;102222.66;;;32.79;34.84
58622;BME280;44389;51.578;5.456;2023-08-21T10:47:49;102215.41;;;32.16;33.83
58622;BME280;44389;51.578;5.456;2023-08-21T10:50:16;102221.06;;;32.96;35.54
58622;BME280;44389;51.578;5.456;2023-08-21T10:52:42;102227.94;;;33.43;34.18
58622;BME280;44389;51.578;5.456;2023-08-21T10:55:11;102231.75;;;32.96;34.09
58622;BME280;44389;51.578;5.456;2023-08-21T10:57:37;102234.22;;;32.80;34.83
58622;BME280;44389;51.578;5.456;2023-08-21T11:00:06;102234.09;;;32.61;34.90
58622;BME280;44389;51.578;5.456;2023-08-21T11:02:35;102225.72;;;33.11;34.72
58622;BME280;44389;51.578;5.456;2023-08-21T11:05:01;102220.41;;;33.91;36.92
58622;BME280;44389;51.578;5.456;2023-08-21T11:07:28;102226.50;;;32.72;36.13
58622;BME280;44389;51.578;5.456;2023-08-21T11:09:54;102220.13;;;32.76;34.65
58622;BME280;44389;51.578;5.456;2023-08-21T11:12:21;102224.91;;;32.24;33.50
58622;BME280;44389;51.578;5.456;2023-08-21T11:14:47;102214.34;;;32.65;33.53
58622;BME280;44389;51.578;5.456;2023-08-21T11:17:12;102222.84;;;33.57;31.43
58622;BME280;44389;51.578;5.456;2023-08-21T11:19:39;102213.56;;;34.22;31.75
58622;BME280;44389;51.578;5.456;2023-08-21T11:22:05;102215.38;;;34.58;29.72
58622;BME280;44389;51.578;5.456;2023-08-21T11:24:45;102217.03;;;34.24;32.53
58622;BME280;44389;51.578;5.456;2023-08-21T11:27:12;102213.72;;;34.19;30.79
58622;BME280;44389;51.578;5.456;2023-08-21T11:29:47;102206.94;;;34.11;30.20
58622;BME280;44389;51.578;5.456;2023-08-21T11:32:13;102210.94;;;34.74;30.24
58622;BME280;44389;51.578;5.456;2023-08-21T11:34:40;102207.66;;;34.52;29.98
58622;BME280;44389;51.578;5.456;2023-08-21T11:37:06;102218.44;;;35.20;29.79
58622;BME280;44389;51.578;5.456;2023-08-21T11:39:51;102209.50;;;35.37;32.00
58622;BME280;44389;51.578;5.456;2023-08-21T11:42:19;102203.44;;;33.33;30.88
58622;BME280;44389;51.578;5.456;2023-08-21T11:44:46;102204.53;;;32.88;33.06
58622;BME280;44389;51.578;5.456;2023-08-21T11:47:12;102202.06;;;33.83;32.34
58622;BME280;44389;51.578;5.456;2023-08-21T11:49:40;102208.22;;;34.22;31.54
58622;BME280;44389;51.578;5.456;2023-08-21T11:52:10;102208.78;;;34.28;30.93
58622;BME280;44389;51.578;5.456;2023-08-21T11:54:35;102200.19;;;35.44;32.32
58622;BME280;44389;51.578;5.456;2023-08-21T11:57:05;102198.25;;;35.96;30.15
58622;BME280;44389;51.578;5.456;2023-08-21T11:59:30;102204.16;;;36.49;30.75
58622;BME280;44389;51.578;5.456;2023-08-21T12:01:56;102199.69;;;36.18;31.09
58622;BME280;44389;51.578;5.456;2023-08-21T12:04:21;102190.94;;;35.17;30.60
58622;BME280;44389;51.578;5.456;2023-08-21T12:06:46;102201.22;;;34.91;33.64
58622;BME280;44389;51.578;5.456;2023-08-21T12:09:12;102198.63;;;35.23;31.52
58622;BME280;44389;51.578;5.456;2023-08-21T12:11:37;102207.97;;;35.49;29.56
58622;BME280;44389;51.578;5.456;2023-08-21T12:14:05;102189.38;;;35.13;30.99
58622;BME280;44389;51.578;5.456;2023-08-21T12:16:30;102193.16;;;34.38;32.19
58622;BME280;44389;51.578;5.456;2023-08-21T12:18:55;102191.34;;;34.39;33.26
58622;BME280;44389;51.578;5.456;2023-08-21T12:21:24;102194.13;;;34.90;31.77
58622;BME280;44389;51.578;5.456;2023-08-21T12:23:49;102189.97;;;35.18;31.74
58622;BME280;44389;51.578;5.456;2023-08-21T12:26:14;102187.81;;;35.08;31.31
58622;BME280;44389;51.578;5.456;2023-08-21T12:28:49;102184.97;;;34.41;32.84
58622;BME280;44389;51.578;5.456;2023-08-21T12:31:14;102176.38;;;33.41;34.17
58622;BME280;44389;51.578;5.456;2023-08-21T12:33:39;102181.28;;;33.50;32.08
58622;BME280;44389;51.578;5.456;2023-08-21T12:36:05;102178.75;;;34.04;32.28
58622;BME280;44389;51.578;5.456;2023-08-21T12:38:30;102181.81;;;34.33;32.45
58622;BME280;44389;51.578;5.456;2023-08-21T12:40:55;102182.59;;;34.70;33.21
58622;BME280;44389;51.578;5.456;2023-08-21T12:43:20;102178.16;;;35.22;31.80
58622;BME280;44389;51.578;5.456;2023-08-21T12:45:46;102162.66;;;35.44;33.31
58622;BME280;44389;51.578;5.456;2023-08-21T12:48:12;102167.81;;;34.63;33.12
58622;BME280;44389;51.578;5.456;2023-08-21T12:50:37;102165.06;;;34.28;32.95